Airfield :
LOGIN :

Register | Disclaimer

   EN    FR    IT 

 










Legend :    VFR   Marginal VFR   IFR   Intensive IFR   Very Intensive IFR
Visi :
Ceiling :
>= 8 km
>= 3000ft
5 to 8 km
1000 to 3000 ft
1500m to 5 km
500 to 1000 ft
800 to 1500m
200 to 500 ft
< 800m
< 200 ft
Symbols :   Thunderstorms  Fog  Heavy snow  Heavy precipitations  Wind > 20 kt
SIGMETs :     Misc.  Thunderstorms  Icing  Turbulence  Mountain Waves  Volcanic Ashes







- Airport Elevation : 124 ft
- IATA code : RNS
- Download approach charts


LFRN - Rennes

CURRENT METAR :
  • 251430Z AUTO 32006KT 9999 SCT013 BKN049 OVC056 18/16 Q1019 NOSIG

EXPIRED METARs :
  • 251400Z AUTO 31009KT 9999 SCT016 BKN035 OVC048 18/16 Q1019 NOSIG
  • 251330Z AUTO 33007KT 9999 BKN016 BKN026 OVC040 19/16 Q1019 NOSIG
  • 251300Z AUTO 32007KT 9999 BKN015 BKN025 BKN033 19/16 Q1019 TEMPO 4000 RA BKN008
  • 251230Z AUTO 34007KT 9999 BKN014 BKN020 OVC034 18/15 Q1019 TEMPO 4000 RA BECMG BKN020
  • 251200Z AUTO 34006KT 300V010 9999 BKN015 BKN022 BKN028 18/16 Q1019 TEMPO 4000 RA BKN008

TAF AMD TAF LFRN
Valid from the 25 at 14:00 until the 26 at 12:00 UTC


251402Z 2514/2612 33008KT 9999 BKN020
TEMPO 2514/2515 4000 RA BKN008
BECMG 2520/2522 BKN015
TEMPO 2520/2606 BKN009
PROB30
TEMPO 2602/2608 3000 BR BKN003
BECMG 2610/2612 BKN020
ATIS : +33 2 99 67 72 50
No reported NOTAMs for that airfield.



MET'MAP, your aeronautical weather chart ! - Copyright ORBIFLY December 2007 - Disclaimer

ORBIFLY MET'MAP TEAM :

Programming & Development : Alexandra Zaïnal
Concept & Development : Baudouin d'Aumeries
Co-Development & Prog : Marc-Olivier Méhu
Technical & hardware support : Manuel Goepfert

Contact : metmap@orbifly.com




SOURCES & CREDITS :

   NOAA